Time;durP1;ratioP1;P1;durP2;ratioP2;P2;SDS_P1;SDS_P2;PMS_P1;PMS_P2;Temp;Humidity;BMP_temperature;BMP_pressure;BME280_temperature;BME280_humidity;BME280_pressure;Samples;Min_cycle;Max_cycle;Signal;HPM_P1;HPM_P2
2021/07/19 00:01:19;;;;;;;15.77;13.10;;;589.40;2432.00;;;;;;5033968;28;20034;-77
2021/07/19 00:03:45;;;;;;;16.63;13.32;;;589.40;2432.00;;;;;;5033969;28;20021;-75
2021/07/19 00:06:11;;;;;;;15.90;12.55;;;589.30;2432.00;;;;;;5033862;28;20202;-78
2021/07/19 00:08:37;;;;;;;14.23;10.88;;;589.30;2432.00;;;;;;5032829;28;20076;-76
2021/07/19 00:11:03;;;;;;;18.92;13.70;;;589.20;2432.00;;;;;;5033642;28;20021;-75
2021/07/19 00:13:30;;;;;;;14.07;12.07;;;589.20;2432.00;;;;;;5032905;28;20022;-77
2021/07/19 00:15:56;;;;;;;18.48;15.10;;;589.20;2432.00;;;;;;5034411;28;20091;-75
2021/07/19 00:18:22;;;;;;;18.65;12.80;;;589.20;2432.00;;;;;;5032712;28;20041;-78
2021/07/19 00:20:48;;;;;;;16.88;13.52;;;589.20;2432.00;;;;;;5033904;28;20541;-75
2021/07/19 00:23:14;;;;;;;17.75;13.52;;;589.20;2432.00;;;;;;5032359;28;20116;-76
2021/07/19 00:25:40;;;;;;;17.55;12.38;;;589.10;2432.00;;;;;;5033554;28;20080;-77
2021/07/19 00:28:06;;;;;;;16.13;12.15;;;589.00;2432.00;;;;;;5032290;28;20033;-77
2021/07/19 00:30:35;;;;;;;19.23;14.75;;;588.90;2432.00;;;;;;5032351;28;20112;-77
2021/07/19 00:33:01;;;;;;;21.35;15.25;;;588.90;2432.00;;;;;;5033493;28;20021;-78
2021/07/19 00:35:27;;;;;;;20.98;14.15;;;589.00;2432.00;;;;;;5033664;28;20355;-79
2021/07/19 00:37:53;;;;;;;20.25;14.43;;;589.00;2432.00;;;;;;5032110;28;20025;-77
2021/07/19 00:40:21;;;;;;;23.27;15.05;;;589.00;2432.00;;;;;;5032591;28;20036;-75
2021/07/19 00:42:48;;;;;;;18.75;15.30;;;589.10;2432.00;;;;;;5032432;28;20029;-75
2021/07/19 00:45:19;;;;;;;19.23;13.95;;;589.10;2432.00;;;;;;5032562;28;20059;-75
2021/07/19 00:47:47;;;;;;;17.17;14.75;;;589.20;2432.00;;;;;;5033769;28;20041;-76
2021/07/19 00:50:13;;;;;;;17.50;15.60;;;589.20;2432.00;;;;;;5033743;28;20025;-75
2021/07/19 00:52:39;;;;;;;14.98;12.20;;;589.20;2432.00;;;;;;5032254;28;20032;-75
2021/07/19 00:55:08;;;;;;;17.92;14.55;;;589.10;2432.00;;;;;;5034014;28;20024;-76
2021/07/19 00:57:37;;;;;;;16.52;13.75;;;589.00;2432.00;;;;;;5040528;28;20032;-77
2021/07/19 01:00:08;;;;;;;17.33;14.57;;;589.00;2432.00;;;;;;5036763;28;20028;-77
2021/07/19 01:02:37;;;;;;;19.45;13.43;;;589.00;2432.00;;;;;;5032813;28;20025;-75
2021/07/19 01:05:06;;;;;;;13.93;12.30;;;588.90;2432.00;;;;;;5037441;28;20021;-76
2021/07/19 01:07:33;;;;;;;18.00;14.43;;;588.90;2432.00;;;;;;5035779;28;20493;-77
2021/07/19 01:10:00;;;;;;;13.95;12.35;;;588.80;2432.00;;;;;;5037204;28;20028;-77
2021/07/19 01:12:26;;;;;;;17.33;12.95;;;588.80;2432.00;;;;;;5036754;28;20026;-75
2021/07/19 01:14:52;;;;;;;15.50;12.07;;;588.80;2432.00;;;;;;5037127;28;20053;-78
2021/07/19 01:17:18;;;;;;;15.98;13.13;;;588.80;2432.00;;;;;;5036952;28;20064;-76
2021/07/19 01:19:48;;;;;;;14.55;11.63;;;564.10;2432.00;;;;;;5035832;28;20045;-78
2021/07/19 01:22:39;;;;;;;15.15;13.30;;;564.10;2432.00;;;;;;5036915;28;20171;-77
2021/07/19 01:25:38;;;;;;;18.17;13.38;;;564.10;2432.00;;;;;;5036795;28;20509;-78
2021/07/19 01:28:29;;;;;;;17.38;14.13;;;564.00;2432.00;;;;;;5035627;28;20420;-77
2021/07/19 01:30:58;;;;;;;19.90;15.75;;;564.00;2432.00;;;;;;5035378;28;20037;-76
2021/07/19 01:33:26;;;;;;;19.05;13.88;;;564.00;2432.00;;;;;;5035541;28;20049;-76
2021/07/19 01:35:54;;;;;;;15.60;12.50;;;564.10;2432.00;;;;;;5036532;28;20029;-77
2021/07/19 01:38:21;;;;;;;21.00;15.77;;;564.00;2432.00;;;;;;5035256;28;20045;-78
2021/07/19 01:40:48;;;;;;;21.15;16.45;;;564.00;2432.00;;;;;;5035234;28;20074;-76
2021/07/19 01:43:15;;;;;;;25.42;19.67;;;564.10;2432.00;;;;;;5036595;28;20079;-76
2021/07/19 01:45:40;;;;;;;19.25;14.40;;;564.10;2432.00;;;;;;5034986;28;20037;-77
2021/07/19 01:48:09;;;;;;;19.73;15.55;;;564.10;2432.00;;;;;;5036555;28;20120;-77
2021/07/19 01:50:37;;;;;;;16.50;13.63;;;564.10;2432.00;;;;;;5036522;28;20022;-78
2021/07/19 01:53:04;;;;;;;18.55;15.23;;;564.10;2432.00;;;;;;5036089;28;20029;-77
2021/07/19 01:55:31;;;;;;;21.80;13.85;;;588.80;2432.00;;;;;;5036216;28;20104;-77
2021/07/19 01:57:58;;;;;;;17.77;15.55;;;564.10;2432.00;;;;;;5036115;28;20052;-77
2021/07/19 02:00:24;;;;;;;14.48;12.98;;;564.10;2432.00;;;;;;5036247;28;20089;-77
2021/07/19 02:02:52;;;;;;;17.00;13.85;;;564.00;2432.00;;;;;;5035623;28;20025;-76
2021/07/19 02:05:23;;;;;;;16.88;15.18;;;564.10;2432.00;;;;;;5036079;28;20030;-79
2021/07/19 02:07:52;;;;;;;16.88;14.80;;;588.80;2432.00;;;;;;5034601;28;20029;-77
2021/07/19 02:10:18;;;;;;;17.25;14.25;;;564.10;2432.00;;;;;;5035995;28;20465;-77
2021/07/19 02:12:45;;;;;;;17.08;14.85;;;564.10;2432.00;;;;;;5034638;28;20033;-77
2021/07/19 02:15:20;;;;;;;18.63;16.70;;;564.10;2432.00;;;;;;5034364;28;20457;-77
2021/07/19 02:17:50;;;;;;;20.25;16.40;;;564.10;2432.00;;;;;;5035714;28;20116;-75
2021/07/19 02:20:19;;;;;;;16.80;15.00;;;564.10;2432.00;;;;;;5034552;28;20109;-75
2021/07/19 02:22:46;;;;;;;18.58;16.65;;;564.10;2432.00;;;;;;5035687;28;20029;-77
2021/07/19 02:25:13;;;;;;;15.93;13.88;;;564.00;2432.00;;;;;;5035514;28;20041;-79
2021/07/19 02:27:42;;;;;;;20.35;17.75;;;564.10;2432.00;;;;;;5034721;28;20045;-74
2021/07/19 02:30:10;;;;;;;17.90;15.02;;;564.10;2432.00;;;;;;5035773;28;20116;-74
2021/07/19 02:32:42;;;;;;;18.92;16.70;;;564.10;2432.00;;;;;;5041872;28;20026;-74
2021/07/19 02:35:09;;;;;;;19.70;16.55;;;564.10;2432.00;;;;;;5041118;28;20104;-74
2021/07/19 02:37:37;;;;;;;18.60;16.63;;;564.10;2432.00;;;;;;5039633;28;20112;-75
2021/07/19 02:40:07;;;;;;;19.40;17.33;;;564.10;2432.00;;;;;;5039631;28;20449;-76
2021/07/19 02:42:44;;;;;;;21.55;18.42;;;564.10;2432.00;;;;;;5040296;28;20469;-76
2021/07/19 02:45:14;;;;;;;26.65;19.58;;;564.10;2432.00;;;;;;5039741;28;20159;-75
2021/07/19 02:47:45;;;;;;;24.65;20.30;;;564.10;2432.00;;;;;;5036748;28;20187;-75
2021/07/19 02:50:13;;;;;;;24.38;19.40;;;588.80;2432.00;;;;;;5038034;28;20037;-75
2021/07/19 02:52:41;;;;;;;19.27;17.27;;;564.10;2432.00;;;;;;5036971;28;20021;-76
2021/07/19 02:55:07;;;;;;;21.98;19.55;;;588.80;2432.00;;;;;;5038083;28;20017;-75
2021/07/19 02:57:37;;;;;;;21.70;19.13;;;588.80;2432.00;;;;;;5037543;28;20101;-75
2021/07/19 03:00:14;;;;;;;24.95;20.77;;;588.90;2432.00;;;;;;5037328;28;20040;-74
2021/07/19 03:02:46;;;;;;;25.52;22.70;;;588.90;2432.00;;;;;;5037053;28;20076;-75
2021/07/19 03:05:15;;;;;;;27.88;23.90;;;588.90;2432.00;;;;;;5038936;28;20060;-75
2021/07/19 03:07:44;;;;;;;23.92;20.95;;;588.90;2432.00;;;;;;5038123;28;20032;-74
2021/07/19 03:10:11;;;;;;;25.10;18.67;;;588.90;2432.00;;;;;;5038928;28;20021;-73
2021/07/19 03:12:40;;;;;;;26.67;23.85;;;588.90;2432.00;;;;;;5039269;28;20120;-74
2021/07/19 03:15:07;;;;;;;22.80;20.10;;;588.90;2432.00;;;;;;5041186;28;20092;-76
2021/07/19 03:17:34;;;;;;;25.38;21.13;;;589.00;2432.00;;;;;;5039452;28;20051;-75
2021/07/19 03:20:03;;;;;;;19.23;17.30;;;588.90;2432.00;;;;;;5039058;28;20108;-78
2021/07/19 03:22:30;;;;;;;20.48;18.13;;;588.90;2432.00;;;;;;5033926;28;20115;-76
2021/07/19 03:24:58;;;;;;;29.67;24.85;;;588.90;2432.00;;;;;;5034283;28;20044;-76
2021/07/19 03:27:25;;;;;;;26.33;22.05;;;588.90;2432.00;;;;;;5034655;28;20021;-75
2021/07/19 03:29:51;;;;;;;23.80;20.98;;;588.90;2432.00;;;;;;5034749;28;20025;-76
2021/07/19 03:32:20;;;;;;;26.67;22.83;;;588.90;2432.00;;;;;;5034748;28;20521;-76
2021/07/19 03:34:46;;;;;;;25.25;21.88;;;588.90;2432.00;;;;;;5036241;28;20025;-75
2021/07/19 03:37:14;;;;;;;20.90;18.70;;;588.90;2432.00;;;;;;5035807;28;20370;-75
2021/07/19 03:39:41;;;;;;;24.52;21.92;;;588.90;2432.00;;;;;;5036079;28;20028;-77
2021/07/19 03:42:11;;;;;;;22.17;18.75;;;588.90;2432.00;;;;;;5036839;28;20029;-75
2021/07/19 03:44:40;;;;;;;21.95;18.95;;;588.90;2432.00;;;;;;5033777;28;20374;-78
2021/07/19 03:47:09;;;;;;;20.38;18.17;;;588.80;2432.00;;;;;;5033692;28;20032;-76
2021/07/19 03:49:36;;;;;;;23.58;18.33;;;564.10;2432.00;;;;;;5033280;28;20116;-77
2021/07/19 03:52:03;;;;;;;27.92;21.00;;;564.10;2432.00;;;;;;5033961;28;20021;-77
2021/07/19 03:54:29;;;;;;;29.08;23.52;;;564.10;2432.00;;;;;;5033149;28;20052;-77
2021/07/19 03:56:55;;;;;;;20.83;18.52;;;564.10;2432.00;;;;;;5032609;28;20033;-77
2021/07/19 03:59:23;;;;;;;18.95;16.85;;;564.10;2432.00;;;;;;5033961;28;20033;-77
2021/07/19 04:01:50;;;;;;;20.90;18.08;;;564.00;2432.00;;;;;;5033933;28;20036;-77
2021/07/19 04:04:29;;;;;;;26.08;18.88;;;563.90;2432.00;;;;;;5032646;28;20083;-76
2021/07/19 04:06:56;;;;;;;21.58;18.02;;;564.00;2432.00;;;;;;5032715;28;20041;-76
2021/07/19 04:09:22;;;;;;;26.45;21.13;;;564.00;2432.00;;;;;;5032395;28;20108;-77
2021/07/19 04:11:48;;;;;;;26.23;21.55;;;564.00;2432.00;;;;;;5033731;28;20053;-77
2021/07/19 04:14:14;;;;;;;23.40;19.30;;;564.00;2432.00;;;;;;5034051;28;20017;-78
2021/07/19 04:16:40;;;;;;;21.38;18.52;;;564.10;2432.00;;;;;;5032101;28;20100;-76
2021/07/19 04:19:06;;;;;;;23.42;19.42;;;564.00;2432.00;;;;;;5032574;28;20029;-76
2021/07/19 04:21:33;;;;;;;22.52;17.60;;;564.00;2432.00;;;;;;5032273;28;20037;-79
2021/07/19 04:24:00;;;;;;;25.85;20.10;;;564.00;2432.00;;;;;;5033234;28;20481;-79
2021/07/19 04:26:26;;;;;;;23.13;17.52;;;563.90;2432.00;;;;;;5033861;28;20060;-76
2021/07/19 04:28:53;;;;;;;25.90;20.95;;;563.90;2432.00;;;;;;5032061;28;20033;-77
2021/07/19 04:31:19;;;;;;;26.77;19.45;;;564.00;2432.00;;;;;;5032038;28;20037;-77
2021/07/19 04:33:46;;;;;;;22.73;20.27;;;563.90;2432.00;;;;;;5032353;28;20018;-77
2021/07/19 04:36:12;;;;;;;26.90;21.63;;;564.00;2432.00;;;;;;5033770;28;20029;-78
2021/07/19 04:38:38;;;;;;;25.15;20.70;;;564.10;2432.00;;;;;;5032066;28;20120;-77
2021/07/19 04:41:04;;;;;;;24.92;20.15;;;564.10;2432.00;;;;;;5032751;28;20100;-76
2021/07/19 04:43:29;;;;;;;24.20;19.33;;;564.10;2432.00;;;;;;5033630;28;20033;-75
2021/07/19 04:45:55;;;;;;;28.90;24.08;;;564.10;2432.00;;;;;;5031517;28;20370;-78
2021/07/19 04:48:22;;;;;;;28.30;22.10;;;564.10;2432.00;;;;;;5032601;28;20042;-78
2021/07/19 04:50:49;;;;;;;33.80;26.02;;;563.90;2432.00;;;;;;5033441;28;20501;-78
2021/07/19 04:53:16;;;;;;;35.25;27.95;;;564.10;2432.00;;;;;;5033211;28;20029;-78
2021/07/19 04:55:51;;;;;;;32.25;25.48;;;564.10;2432.00;;;;;;5031984;28;20033;-78
2021/07/19 04:58:21;;;;;;;28.20;21.45;;;564.10;2432.00;;;;;;5033111;28;20052;-78
2021/07/19 05:01:03;;;;;;;28.58;22.52;;;588.80;2432.00;;;;;;5033131;28;20087;-77
2021/07/19 05:03:33;;;;;;;28.77;22.27;;;564.10;2432.00;;;;;;5032130;28;20029;-77
2021/07/19 05:06:01;;;;;;;33.20;24.90;;;564.10;2432.00;;;;;;5033238;28;20057;-76
2021/07/19 05:08:28;;;;;;;34.33;25.80;;;564.10;2432.00;;;;;;5033038;28;20022;-75
2021/07/19 05:10:54;;;;;;;30.45;23.48;;;564.00;2432.00;;;;;;5031895;28;20080;-78
2021/07/19 05:13:21;;;;;;;28.75;21.60;;;564.00;2432.00;;;;;;5031720;28;20474;-77
2021/07/19 05:15:47;;;;;;;25.42;20.40;;;564.10;2432.00;;;;;;5033498;28;20030;-76
2021/07/19 05:18:16;;;;;;;26.42;21.38;;;564.10;2432.00;;;;;;5031107;28;20030;-77
2021/07/19 05:20:44;;;;;;;29.05;22.50;;;564.10;2432.00;;;;;;5032890;28;20083;-76
2021/07/19 05:23:11;;;;;;;25.40;21.23;;;564.10;2432.00;;;;;;5033009;28;20386;-76
2021/07/19 05:25:37;;;;;;;30.70;23.27;;;563.90;2432.00;;;;;;5031461;28;20057;-77
2021/07/19 05:28:13;;;;;;;29.48;22.92;;;564.10;2432.00;;;;;;5032960;28;20032;-77
2021/07/19 05:30:41;;;;;;;27.05;22.15;;;564.10;2432.00;;;;;;5031930;28;20033;-77
2021/07/19 05:33:09;;;;;;;25.65;21.60;;;564.10;2432.00;;;;;;5030996;28;20021;-76
2021/07/19 05:35:36;;;;;;;31.02;22.65;;;563.90;2432.00;;;;;;5031567;28;20432;-77
2021/07/19 05:38:02;;;;;;;26.02;20.85;;;564.10;2432.00;;;;;;5031639;28;20511;-77
2021/07/19 05:40:29;;;;;;;26.75;20.50;;;564.10;2432.00;;;;;;5031483;28;20034;-78
2021/07/19 05:42:55;;;;;;;26.88;21.35;;;564.10;2432.00;;;;;;5031152;28;20046;-77
2021/07/19 05:45:21;;;;;;;30.73;21.98;;;564.10;2432.00;;;;;;5031470;28;20018;-77
2021/07/19 05:47:47;;;;;;;26.55;20.58;;;588.90;2432.00;;;;;;5031486;28;20032;-77
2021/07/19 05:50:13;;;;;;;31.15;24.05;;;588.90;2432.00;;;;;;5033962;28;20026;-77
2021/07/19 05:52:39;;;;;;;27.30;22.63;;;588.90;2432.00;;;;;;5035132;28;20075;-77
2021/07/19 05:55:06;;;;;;;28.50;22.17;;;589.00;2432.00;;;;;;5036204;28;20470;-77
2021/07/19 05:57:33;;;;;;;34.88;24.77;;;589.00;2432.00;;;;;;5036379;28;20026;-78
2021/07/19 06:00:00;;;;;;;34.53;24.58;;;589.00;2432.00;;;;;;5035711;28;20025;-76
2021/07/19 06:02:28;;;;;;;32.42;23.70;;;589.10;2432.00;;;;;;5035820;28;20044;-78
2021/07/19 06:04:55;;;;;;;27.13;19.92;;;589.20;2432.00;;;;;;5036235;28;20425;-76
2021/07/19 06:07:22;;;;;;;25.30;20.25;;;589.20;2432.00;;;;;;5036159;28;20032;-77
2021/07/19 06:09:48;;;;;;;26.42;21.15;;;589.30;2432.00;;;;;;5034585;28;20025;-76
2021/07/19 06:12:14;;;;;;;28.58;22.05;;;589.30;2432.00;;;;;;5035924;28;20029;-76
2021/07/19 06:14:41;;;;;;;31.45;22.90;;;589.30;2432.00;;;;;;5034873;28;20074;-77
2021/07/19 06:17:07;;;;;;;22.70;17.88;;;589.70;2432.00;;;;;;5035931;28;20021;-76
2021/07/19 06:19:33;;;;;;;25.85;18.60;;;589.40;2432.00;;;;;;5036381;28;20507;-77
2021/07/19 06:21:59;;;;;;;26.33;20.33;;;589.40;2432.00;;;;;;5035223;28;20029;-76
2021/07/19 06:24:26;;;;;;;23.40;17.85;;;589.50;2432.00;;;;;;5036131;28;20026;-76
2021/07/19 06:26:51;;;;;;;24.88;18.13;;;589.50;2432.00;;;;;;5035862;28;20073;-77
2021/07/19 06:29:17;;;;;;;22.80;18.88;;;589.50;2432.00;;;;;;5035699;28;20067;-76
2021/07/19 06:31:43;;;;;;;26.58;20.15;;;589.50;2432.00;;;;;;5034372;28;20029;-76
2021/07/19 06:34:09;;;;;;;23.23;17.83;;;589.50;2432.00;;;;;;5034903;28;20056;-78
2021/07/19 06:36:36;;;;;;;22.92;18.25;;;589.60;2432.00;;;;;;5036025;28;20025;-77
2021/07/19 06:39:03;;;;;;;26.15;20.70;;;589.50;2432.00;;;;;;5034492;28;20497;-77
2021/07/19 06:41:30;;;;;;;22.58;18.38;;;589.60;2432.00;;;;;;5035501;28;20048;-77
2021/07/19 06:43:55;;;;;;;29.15;21.77;;;589.60;2432.00;;;;;;5034774;28;20547;-77
2021/07/19 06:46:21;;;;;;;23.02;17.88;;;589.70;2432.00;;;;;;5034071;28;20045;-75
2021/07/19 06:48:47;;;;;;;24.17;17.95;;;589.70;2432.00;;;;;;5035155;28;20083;-77
2021/07/19 06:51:12;;;;;;;19.77;16.02;;;589.70;2432.00;;;;;;5034242;28;20107;-76
2021/07/19 06:53:38;;;;;;;25.25;19.40;;;589.60;2432.00;;;;;;5034131;28;20477;-77
2021/07/19 06:56:07;;;;;;;20.92;17.40;;;589.60;2432.00;;;;;;5033934;28;20029;-76
2021/07/19 06:58:32;;;;;;;26.08;19.65;;;589.70;2432.00;;;;;;5035189;28;20431;-78
2021/07/19 07:00:58;;;;;;;23.10;17.60;;;589.70;2432.00;;;;;;5034219;28;20108;-77
2021/07/19 07:03:24;;;;;;;25.35;20.10;;;589.70;2432.00;;;;;;5033664;28;20133;-76
2021/07/19 07:05:50;;;;;;;22.17;18.42;;;589.70;2432.00;;;;;;5035253;28;20473;-76
2021/07/19 07:08:15;;;;;;;24.95;18.17;;;589.70;2432.00;;;;;;5035238;28;20053;-76
2021/07/19 07:10:41;;;;;;;27.25;20.33;;;589.70;2432.00;;;;;;5034805;28;20458;-77
2021/07/19 07:13:09;;;;;;;27.52;21.13;;;589.70;2432.00;;;;;;5034828;28;20031;-76
2021/07/19 07:15:37;;;;;;;22.75;18.33;;;614.40;2432.00;;;;;;5034646;28;20025;-78
2021/07/19 07:18:08;;;;;;;26.00;20.60;;;589.70;2432.00;;;;;;5033640;28;20057;-78
2021/07/19 07:20:35;;;;;;;24.30;19.50;;;589.70;2432.00;;;;;;5031421;28;20029;-78
2021/07/19 07:23:01;;;;;;;21.30;17.38;;;589.70;2432.00;;;;;;5034843;28;20021;-74
2021/07/19 07:25:27;;;;;;;23.27;17.80;;;589.70;2432.00;;;;;;5033060;28;20044;-77
2021/07/19 07:27:53;;;;;;;22.40;17.98;;;589.70;2432.00;;;;;;5034459;28;20057;-76
2021/07/19 07:30:20;;;;;;;19.73;15.52;;;589.70;2432.00;;;;;;5033017;28;20064;-76
2021/07/19 07:32:47;;;;;;;23.92;15.52;;;589.60;2432.00;;;;;;5034313;28;20097;-77
2021/07/19 07:35:13;;;;;;;17.75;14.93;;;589.60;2432.00;;;;;;5032647;28;20108;-77
2021/07/19 07:37:39;;;;;;;20.75;16.58;;;589.50;2432.00;;;;;;5034193;28;20462;-76
2021/07/19 07:40:07;;;;;;;20.58;16.85;;;589.60;2432.00;;;;;;5034247;28;20079;-76
2021/07/19 07:42:33;;;;;;;17.98;14.00;;;589.60;2432.00;;;;;;5034011;28;20034;-76
2021/07/19 07:44:59;;;;;;;21.23;14.52;;;589.60;2432.00;;;;;;5034089;28;20037;-76
2021/07/19 07:47:26;;;;;;;18.08;14.60;;;589.40;2432.00;;;;;;5033600;28;20052;-75
2021/07/19 07:49:52;;;;;;;18.73;15.07;;;589.40;2432.00;;;;;;5033855;28;20080;-77
2021/07/19 07:52:19;;;;;;;19.98;17.73;;;589.40;2432.00;;;;;;5032824;28;20025;-77
2021/07/19 07:54:45;;;;;;;18.40;14.35;;;589.50;2432.00;;;;;;5034245;28;20018;-77
2021/07/19 07:57:11;;;;;;;17.90;15.13;;;589.40;2432.00;;;;;;5032298;28;20038;-77
2021/07/19 07:59:37;;;;;;;19.25;15.25;;;589.40;2432.00;;;;;;5034016;28;20029;-76
2021/07/19 08:02:03;;;;;;;17.60;13.15;;;589.40;2432.00;;;;;;5033820;28;20041;-77
2021/07/19 08:04:30;;;;;;;22.08;13.57;;;589.40;2432.00;;;;;;5033964;28;20020;-76
2021/07/19 08:06:56;;;;;;;19.27;14.98;;;589.40;2432.00;;;;;;5034368;28;20105;-76
2021/07/19 08:09:22;;;;;;;15.68;13.30;;;589.40;2432.00;;;;;;5032317;28;20025;-75
2021/07/19 08:11:48;;;;;;;16.67;13.05;;;589.30;2432.00;;;;;;5032351;28;20029;-76
2021/07/19 08:14:14;;;;;;;16.65;12.98;;;589.30;2432.00;;;;;;5033858;28;20027;-77
2021/07/19 08:16:39;;;;;;;16.08;12.95;;;589.30;2432.00;;;;;;5032219;28;20068;-75
2021/07/19 08:19:07;;;;;;;14.15;12.40;;;589.30;2432.00;;;;;;5035207;28;20103;-77
2021/07/19 08:21:34;;;;;;;14.32;11.82;;;589.30;2432.00;;;;;;5035775;28;20126;-76
2021/07/19 08:24:01;;;;;;;13.68;11.45;;;589.20;2432.00;;;;;;5035739;28;20017;-75
2021/07/19 08:26:27;;;;;;;21.58;13.73;;;589.30;2432.00;;;;;;5033240;28;20125;-77
2021/07/19 08:28:55;;;;;;;15.43;12.98;;;589.30;2432.00;;;;;;5031621;28;20057;-77
2021/07/19 08:31:22;;;;;;;15.13;11.00;;;589.30;2432.00;;;;;;5032027;28;20069;-78
2021/07/19 08:33:47;;;;;;;18.38;11.00;;;589.30;2432.00;;;;;;5032148;28;20111;-78
2021/07/19 08:36:13;;;;;;;14.18;12.43;;;589.30;2432.00;;;;;;5033454;28;20462;-77
2021/07/19 08:38:39;;;;;;;16.40;13.00;;;589.30;2432.00;;;;;;5033756;28;20116;-76
2021/07/19 08:41:05;;;;;;;14.82;11.55;;;589.30;2432.00;;;;;;5031988;28;20032;-76
2021/07/19 08:43:32;;;;;;;15.10;11.68;;;589.30;2432.00;;;;;;5033383;28;20025;-77
2021/07/19 08:45:59;;;;;;;19.90;12.75;;;589.30;2432.00;;;;;;5031919;28;20022;-79
2021/07/19 08:48:25;;;;;;;18.75;13.75;;;589.30;2432.00;;;;;;5033482;28;20397;-78
2021/07/19 08:50:51;;;;;;;15.95;11.70;;;589.40;2432.00;;;;;;5032385;28;20029;-77
2021/07/19 08:53:17;;;;;;;17.02;13.38;;;589.50;2432.00;;;;;;5031688;28;20033;-78
2021/07/19 08:55:49;;;;;;;14.93;11.38;;;589.50;2432.00;;;;;;5032025;28;20033;-76
2021/07/19 08:58:15;;;;;;;19.95;10.85;;;589.60;2432.00;;;;;;5031911;28;20474;-79
2021/07/19 09:00:42;;;;;;;15.75;11.43;;;589.60;2432.00;;;;;;5031869;28;20049;-78
2021/07/19 09:03:08;;;;;;;13.25;10.55;;;589.60;2432.00;;;;;;5031636;28;20030;-78
2021/07/19 09:05:34;;;;;;;15.13;10.80;;;589.50;2432.00;;;;;;5032446;28;20382;-79
2021/07/19 09:08:00;;;;;;;15.93;10.95;;;589.50;2432.00;;;;;;5031023;28;20030;-78
2021/07/19 09:10:27;;;;;;;14.90;10.30;;;589.40;2432.00;;;;;;5031705;28;20080;-78
2021/07/19 09:12:58;;;;;;;17.35;10.52;;;589.40;2432.00;;;;;;5031758;28;20025;-77
2021/07/19 09:15:36;;;;;;;17.55;10.45;;;589.40;2432.00;;;;;;5033844;28;20026;-77
2021/07/19 09:18:06;;;;;;;16.00;8.73;;;589.40;2432.00;;;;;;5030578;28;20498;-77
2021/07/19 09:20:39;;;;;;;11.55;9.38;;;589.40;2432.00;;;;;;5031812;28;20022;-76
2021/07/19 09:23:07;;;;;;;14.95;9.77;;;589.40;2432.00;;;;;;5031660;28;20117;-77
2021/07/19 09:25:34;;;;;;;12.13;7.65;;;589.40;2432.00;;;;;;5036016;28;20049;-77
2021/07/19 09:28:06;;;;;;;12.48;8.35;;;589.40;2432.00;;;;;;5035293;28;20056;-78
2021/07/19 09:30:34;;;;;;;10.48;6.18;;;589.40;2432.00;;;;;;5035338;28;20037;-77
2021/07/19 09:33:03;;;;;;;12.80;7.28;;;589.40;2432.00;;;;;;5035193;28;20079;-78
2021/07/19 09:35:32;;;;;;;11.93;7.03;;;589.40;2432.00;;;;;;5036704;28;20083;-78
2021/07/19 09:38:04;;;;;;;9.32;5.80;;;589.50;2432.00;;;;;;5036766;28;20017;-78
2021/07/19 09:40:31;;;;;;;7.25;5.82;;;589.60;2432.00;;;;;;5034872;28;20040;-77
2021/07/19 09:42:57;;;;;;;9.10;5.90;;;589.50;2432.00;;;;;;5036649;28;20029;-78
2021/07/19 09:45:32;;;;;;;8.95;5.18;;;589.60;2432.00;;;;;;5035127;28;20387;-77
2021/07/19 09:48:00;;;;;;;12.60;5.28;;;589.60;2432.00;;;;;;5035481;28;20021;-79
2021/07/19 09:50:26;;;;;;;7.60;4.22;;;589.60;2432.00;;;;;;5036508;28;20354;-79
2021/07/19 09:52:52;;;;;;;8.98;5.20;;;589.70;2432.00;;;;;;5035334;28;20030;-78
2021/07/19 09:55:25;;;;;;;9.18;5.63;;;589.70;2432.00;;;;;;5036507;28;20419;-79
2021/07/19 09:57:59;;;;;;;12.98;7.82;;;614.40;2432.00;;;;;;5035169;28;20053;-78
2021/07/19 10:00:27;;;;;;;12.70;7.15;;;614.40;2432.00;;;;;;5034868;28;20061;-76
2021/07/19 10:02:53;;;;;;;11.43;6.80;;;614.50;2432.00;;;;;;5036297;28;20029;-76
2021/07/19 10:05:31;;;;;;;11.43;6.70;;;614.50;2432.00;;;;;;5035995;28;20029;-76
2021/07/19 10:08:01;;;;;;;10.27;7.00;;;614.50;2432.00;;;;;;5034718;28;20074;-77
2021/07/19 10:10:40;;;;;;;10.40;8.32;;;614.50;2432.00;;;;;;5034608;28;20026;-77
2021/07/19 10:13:08;;;;;;;10.27;7.38;;;614.60;2432.00;;;;;;5034110;28;20068;-77
2021/07/19 10:15:37;;;;;;;13.70;8.75;;;614.60;2432.00;;;;;;5033278;28;20017;-80
2021/07/19 10:18:11;;;;;;;14.70;8.98;;;614.50;2432.00;;;;;;5034579;28;20042;-76
2021/07/19 10:20:41;;;;;;;13.15;9.30;;;614.60;2432.00;;;;;;5034636;28;20122;-79
2021/07/19 10:23:08;;;;;;;13.85;9.68;;;614.60;2432.00;;;;;;5035492;28;20056;-76
2021/07/19 10:25:37;;;;;;;9.52;7.32;;;614.70;2432.00;;;;;;5035648;28;20053;-78
2021/07/19 10:28:04;;;;;;;9.55;8.55;;;614.80;2432.00;;;;;;5035890;28;20025;-78
2021/07/19 10:30:30;;;;;;;15.80;11.00;;;614.80;2432.00;;;;;;5040752;28;20025;-76
2021/07/19 10:32:56;;;;;;;17.33;9.98;;;614.90;2432.00;;;;;;5039790;28;20021;-78
2021/07/19 10:35:27;;;;;;;12.93;8.05;;;615.00;2432.00;;;;;;5034347;28;20029;-77
2021/07/19 10:38:04;;;;;;;10.30;6.95;;;614.90;2432.00;;;;;;5036269;28;20033;-77
2021/07/19 10:40:33;;;;;;;8.95;6.20;;;615.00;2432.00;;;;;;5035468;28;20033;-77
2021/07/19 10:43:10;;;;;;;8.75;5.43;;;615.00;2432.00;;;;;;5034409;28;20040;-77
2021/07/19 10:45:45;;;;;;;8.20;6.22;;;615.00;2432.00;;;;;;5033981;28;20075;-78
2021/07/19 10:48:26;;;;;;;11.50;7.93;;;615.00;2432.00;;;;;;5035423;28;20025;-78
2021/07/19 10:50:53;;;;;;;10.68;7.43;;;615.10;2432.00;;;;;;5035625;28;20482;-76
2021/07/19 10:53:22;;;;;;;9.50;7.03;;;615.10;2432.00;;;;;;5035695;28;20465;-79
2021/07/19 10:56:02;;;;;;;11.15;6.55;;;615.00;2432.00;;;;;;5034628;28;20119;-78
2021/07/19 10:58:48;;;;;;;10.88;7.65;;;614.90;2432.00;;;;;;5033933;28;20367;-78
2021/07/19 11:01:29;;;;;;;13.45;8.50;;;614.80;2432.00;;;;;;5033505;28;20037;-77
2021/07/19 11:03:57;;;;;;;12.85;9.95;;;614.80;2432.00;;;;;;5033677;28;20033;-79
2021/07/19 11:06:38;;;;;;;14.35;10.98;;;614.80;2432.00;;;;;;5033785;28;20041;-76
2021/07/19 11:09:09;;;;;;;13.32;9.27;;;614.80;2432.00;;;;;;5033458;28;20087;-79
2021/07/19 11:11:42;;;;;;;14.43;9.73;;;614.80;2432.00;;;;;;5028251;28;20436;-78
2021/07/19 11:14:12;;;;;;;17.77;11.25;;;614.80;2432.00;;;;;;5033653;28;20039;-77
2021/07/19 11:16:44;;;;;;;23.73;14.93;;;614.80;2432.00;;;;;;5034010;28;20033;-77
2021/07/19 11:19:10;;;;;;;23.13;14.27;;;614.80;2432.00;;;;;;5033789;28;20073;-78
2021/07/19 11:21:36;;;;;;;23.67;14.13;;;614.80;2432.00;;;;;;5033379;28;20461;-78
2021/07/19 11:24:13;;;;;;;23.00;14.63;;;614.80;2432.00;;;;;;5049364;28;20033;-77
2021/07/19 11:26:57;;;;;;;29.40;18.70;;;614.80;2432.00;;;;;;5032399;28;20132;-76
2021/07/19 11:29:26;;;;;;;32.42;21.27;;;614.70;2432.00;;;;;;5036318;28;20025;-76
2021/07/19 11:32:06;;;;;;;29.58;20.27;;;614.60;2432.00;;;;;;5032655;28;20040;-77
2021/07/19 11:34:34;;;;;;;32.83;20.38;;;614.60;2432.00;;;;;;5033144;28;20028;-76
2021/07/19 11:37:02;;;;;;;28.63;18.27;;;614.60;2432.00;;;;;;5034322;28;20025;-78
2021/07/19 11:39:27;;;;;;;42.90;24.27;;;614.60;2432.00;;;;;;5033755;28;20059;-77
2021/07/19 11:42:04;;;;;;;28.65;20.10;;;614.50;2432.00;;;;;;5033747;28;20038;-77
2021/07/19 11:44:32;;;;;;;28.15;19.75;;;614.40;2432.00;;;;;;5033960;28;20029;-77
2021/07/19 11:46:59;;;;;;;32.63;21.10;;;614.40;2432.00;;;;;;5033236;28;20429;-79
2021/07/19 11:49:26;;;;;;;36.83;23.95;;;589.70;2432.00;;;;;;5032707;28;20076;-79
2021/07/19 11:51:52;;;;;;;40.58;24.67;;;589.70;2432.00;;;;;;5032435;28;20041;-78
2021/07/19 11:54:18;;;;;;;34.50;22.83;;;589.70;2432.00;;;;;;5033691;28;20100;-78
2021/07/19 11:56:48;;;;;;;40.10;23.25;;;589.60;2432.00;;;;;;5032534;28;20032;-77
2021/07/19 11:59:20;;;;;;;40.80;23.90;;;589.60;2432.00;;;;;;5031834;28;20037;-78
2021/07/19 12:01:53;;;;;;;37.55;22.48;;;589.60;2432.00;;;;;;5032851;28;20452;-78
2021/07/19 12:04:19;;;;;;;37.17;22.60;;;589.50;2432.00;;;;;;5032594;28;20485;-75
2021/07/19 12:06:51;;;;;;;41.90;23.17;;;589.40;2432.00;;;;;;5030736;28;20083;-77